Terminal Aerodrome Forecast
Issued by NWS

Home | Current Version | Previous Version | Text Only | Print | Product List | Glossary On
Versions: 1 2 3 4 5 6 7 8 9 10 11 12 13 14 15 16 17 18
000
FTUS45 KRIW 191920 AAA
TAFCOD
TAF AMD
KCOD 191920Z 1919/2018 00000KT P6SM -RA SCT012 OVC025 WS015/27045KT
      TEMPO 1919/1921 OVC012
     FM192100 24015KT P6SM BKN080 WS015/25035KT
     FM200200 36010KT P6SM BKN080
     FM200400 01010KT P6SM VCSH BKN035
     FM200900 03004KT P6SM VCSH BKN040
      AMD LTD TO CLD VIS AND WIND=

USA.gov is the U.S. government's official web portal to all federal, state and local government web resources and services.